sensor_id;sensor_type;location;lat;lon;timestamp;pressure;altitude;pressure_sealevel;temperature;humidity
52511;BME280;63918;51.700;17.998;2022-10-31T00:00:06;100268.99;;;11.24;100.00
52511;BME280;63918;51.700;17.998;2022-10-31T00:02:54;100264.26;;;11.47;100.00
52511;BME280;63918;51.700;17.998;2022-10-31T00:05:20;100264.92;;;11.53;100.00
52511;BME280;63918;51.700;17.998;2022-10-31T00:07:47;100270.45;;;11.33;100.00
52511;BME280;63918;51.700;17.998;2022-10-31T00:10:13;100270.91;;;11.21;100.00
52511;BME280;63918;51.700;17.998;2022-10-31T00:12:40;100270.86;;;11.11;100.00
52511;BME280;63918;51.700;17.998;2022-10-31T00:15:06;100270.41;;;11.21;100.00
52511;BME280;63918;51.700;17.998;2022-10-31T00:17:35;100272.51;;;11.10;100.00
52511;BME280;63918;51.700;17.998;2022-10-31T00:20:02;100267.34;;;11.09;100.00
52511;BME280;63918;51.700;17.998;2022-10-31T00:22:29;100271.44;;;10.86;100.00
52511;BME280;63918;51.700;17.998;2022-10-31T00:24:56;100275.59;;;10.90;100.00
52511;BME280;63918;51.700;17.998;2022-10-31T00:27:22;100270.40;;;10.87;100.00
52511;BME280;63918;51.700;17.998;2022-10-31T00:29:49;100273.98;;;10.87;100.00
52511;BME280;63918;51.700;17.998;2022-10-31T00:32:15;100271.17;;;10.83;100.00
52511;BME280;63918;51.700;17.998;2022-10-31T00:34:41;100272.12;;;10.81;100.00
52511;BME280;63918;51.700;17.998;2022-10-31T00:37:08;100276.10;;;10.78;100.00
52511;BME280;63918;51.700;17.998;2022-10-31T00:39:34;100272.84;;;10.87;100.00
52511;BME280;63918;51.700;17.998;2022-10-31T00:42:01;100276.33;;;10.87;100.00
52511;BME280;63918;51.700;17.998;2022-10-31T00:44:27;100280.09;;;10.93;100.00
52511;BME280;63918;51.700;17.998;2022-10-31T00:46:54;100277.66;;;10.99;100.00
52511;BME280;63918;51.700;17.998;2022-10-31T00:49:20;100277.27;;;10.94;100.00
52511;BME280;63918;51.700;17.998;2022-10-31T00:51:47;100275.80;;;10.79;100.00
52511;BME280;63918;51.700;17.998;2022-10-31T00:54:13;100278.88;;;10.89;100.00
52511;BME280;63918;51.700;17.998;2022-10-31T00:56:39;100275.51;;;10.99;100.00
52511;BME280;63918;51.700;17.998;2022-10-31T00:59:06;100275.21;;;10.92;100.00
52511;BME280;63918;51.700;17.998;2022-10-31T01:01:32;100277.61;;;10.89;100.00
52511;BME280;63918;51.700;17.998;2022-10-31T01:03:59;100276.10;;;10.85;100.00
52511;BME280;63918;51.700;17.998;2022-10-31T01:06:25;100275.19;;;10.84;100.00
52511;BME280;63918;51.700;17.998;2022-10-31T01:08:52;100277.42;;;10.83;100.00
52511;BME280;63918;51.700;17.998;2022-10-31T01:11:21;100271.48;;;10.75;100.00
52511;BME280;63918;51.700;17.998;2022-10-31T01:13:50;100275.79;;;10.86;100.00
52511;BME280;63918;51.700;17.998;2022-10-31T01:16:20;100274.44;;;10.84;100.00
52511;BME280;63918;51.700;17.998;2022-10-31T01:18:47;100280.21;;;10.93;100.00
52511;BME280;63918;51.700;17.998;2022-10-31T01:21:20;100281.51;;;10.94;100.00
52511;BME280;63918;51.700;17.998;2022-10-31T01:23:48;100283.25;;;11.03;100.00
52511;BME280;63918;51.700;17.998;2022-10-31T01:26:17;100278.50;;;10.86;100.00
52511;BME280;63918;51.700;17.998;2022-10-31T01:28:55;100282.41;;;10.87;100.00
52511;BME280;63918;51.700;17.998;2022-10-31T01:31:24;100279.54;;;10.73;100.00
52511;BME280;63918;51.700;17.998;2022-10-31T01:33:52;100282.77;;;10.66;100.00
52511;BME280;63918;51.700;17.998;2022-10-31T01:36:20;100283.35;;;10.38;100.00
52511;BME280;63918;51.700;17.998;2022-10-31T01:38:48;100281.70;;;10.24;100.00
52511;BME280;63918;51.700;17.998;2022-10-31T01:41:22;100279.16;;;10.22;100.00
52511;BME280;63918;51.700;17.998;2022-10-31T01:46:32;100274.05;;;10.10;100.00
52511;BME280;63918;51.700;17.998;2022-10-31T01:49:03;100279.81;;;10.01;100.00
52511;BME280;63918;51.700;17.998;2022-10-31T01:51:35;100278.30;;;10.10;100.00
52511;BME280;63918;51.700;17.998;2022-10-31T01:54:08;100278.90;;;10.15;100.00
52511;BME280;63918;51.700;17.998;2022-10-31T01:56:39;100282.11;;;10.36;100.00
52511;BME280;63918;51.700;17.998;2022-10-31T01:59:09;100281.52;;;10.33;100.00
52511;BME280;63918;51.700;17.998;2022-10-31T02:01:42;100286.14;;;10.31;100.00
52511;BME280;63918;51.700;17.998;2022-10-31T02:04:09;100284.39;;;10.33;100.00
52511;BME280;63918;51.700;17.998;2022-10-31T02:06:38;100281.70;;;10.30;100.00
52511;BME280;63918;51.700;17.998;2022-10-31T02:09:07;100280.05;;;10.17;100.00
52511;BME280;63918;51.700;17.998;2022-10-31T02:11:35;100282.05;;;10.21;100.00
52511;BME280;63918;51.700;17.998;2022-10-31T02:14:03;100286.77;;;10.17;100.00
52511;BME280;63918;51.700;17.998;2022-10-31T02:16:30;100281.08;;;9.93;100.00
52511;BME280;63918;51.700;17.998;2022-10-31T02:18:56;100282.38;;;9.90;100.00
52511;BME280;63918;51.700;17.998;2022-10-31T02:27:07;100287.10;;;9.92;100.00
52511;BME280;63918;51.700;17.998;2022-10-31T02:32:27;100292.48;;;9.76;100.00
52511;BME280;63918;51.700;17.998;2022-10-31T02:35:31;100300.17;;;9.84;100.00
52511;BME280;63918;51.700;17.998;2022-10-31T02:38:27;100298.49;;;9.84;100.00
52511;BME280;63918;51.700;17.998;2022-10-31T02:46:31;100294.02;;;9.35;100.00
52511;BME280;63918;51.700;17.998;2022-10-31T02:49:09;100294.17;;;9.38;100.00
52511;BME280;63918;51.700;17.998;2022-10-31T02:51:38;100295.89;;;9.25;100.00
52511;BME280;63918;51.700;17.998;2022-10-31T02:54:17;100299.19;;;9.16;100.00
52511;BME280;63918;51.700;17.998;2022-10-31T02:56:43;100301.66;;;9.07;100.00
52511;BME280;63918;51.700;17.998;2022-10-31T02:59:10;100307.20;;;9.10;100.00
52511;BME280;63918;51.700;17.998;2022-10-31T03:04:53;100312.95;;;9.42;100.00
52511;BME280;63918;51.700;17.998;2022-10-31T03:15:36;100314.89;;;9.85;100.00
52511;BME280;63918;51.700;17.998;2022-10-31T03:18:08;100320.31;;;9.83;100.00
52511;BME280;63918;51.700;17.998;2022-10-31T03:21:14;100319.83;;;9.80;100.00
52511;BME280;63918;51.700;17.998;2022-10-31T03:23:44;100317.31;;;9.64;100.00
52511;BME280;63918;51.700;17.998;2022-10-31T03:26:13;100314.55;;;9.65;100.00
52511;BME280;63918;51.700;17.998;2022-10-31T03:28:46;100318.47;;;9.77;100.00
52511;BME280;63918;51.700;17.998;2022-10-31T03:31:16;100319.13;;;9.82;100.00
52511;BME280;63918;51.700;17.998;2022-10-31T03:33:44;100321.17;;;9.88;100.00
52511;BME280;63918;51.700;17.998;2022-10-31T03:36:17;100324.98;;;9.99;100.00
52511;BME280;63918;51.700;17.998;2022-10-31T03:38:45;100322.59;;;10.03;100.00
52511;BME280;63918;51.700;17.998;2022-10-31T03:41:17;100328.98;;;9.97;100.00
52511;BME280;63918;51.700;17.998;2022-10-31T03:43:51;100329.20;;;9.96;100.00
52511;BME280;63918;51.700;17.998;2022-10-31T03:46:19;100329.76;;;9.88;100.00
52511;BME280;63918;51.700;17.998;2022-10-31T03:48:46;100327.46;;;9.81;100.00
52511;BME280;63918;51.700;17.998;2022-10-31T03:51:25;100330.60;;;9.66;100.00
52511;BME280;63918;51.700;17.998;2022-10-31T03:53:57;100328.77;;;9.70;100.00
52511;BME280;63918;51.700;17.998;2022-10-31T03:56:44;100328.33;;;9.75;100.00
52511;BME280;63918;51.700;17.998;2022-10-31T03:59:23;100326.85;;;9.62;100.00
52511;BME280;63918;51.700;17.998;2022-10-31T04:01:54;100328.48;;;9.51;100.00
52511;BME280;63918;51.700;17.998;2022-10-31T04:04:23;100330.15;;;9.45;100.00
52511;BME280;63918;51.700;17.998;2022-10-31T04:06:52;100326.95;;;9.45;100.00
52511;BME280;63918;51.700;17.998;2022-10-31T04:09:20;100326.45;;;9.44;100.00
52511;BME280;63918;51.700;17.998;2022-10-31T04:11:53;100330.59;;;9.52;100.00
52511;BME280;63918;51.700;17.998;2022-10-31T04:14:22;100328.48;;;9.59;100.00
52511;BME280;63918;51.700;17.998;2022-10-31T04:16:50;100329.35;;;9.60;100.00
52511;BME280;63918;51.700;17.998;2022-10-31T04:19:16;100329.48;;;9.68;100.00
52511;BME280;63918;51.700;17.998;2022-10-31T04:21:43;100327.25;;;9.73;100.00
52511;BME280;63918;51.700;17.998;2022-10-31T04:24:10;100323.73;;;9.79;100.00
52511;BME280;63918;51.700;17.998;2022-10-31T04:26:37;100328.61;;;9.78;100.00
52511;BME280;63918;51.700;17.998;2022-10-31T04:29:03;100326.15;;;9.69;100.00
52511;BME280;63918;51.700;17.998;2022-10-31T04:31:30;100324.22;;;9.69;100.00
52511;BME280;63918;51.700;17.998;2022-10-31T04:33:56;100329.36;;;9.68;100.00
52511;BME280;63918;51.700;17.998;2022-10-31T04:36:23;100329.25;;;9.59;100.00
52511;BME280;63918;51.700;17.998;2022-10-31T04:38:49;100327.23;;;9.57;100.00
52511;BME280;63918;51.700;17.998;2022-10-31T04:41:15;100324.05;;;9.70;100.00
52511;BME280;63918;51.700;17.998;2022-10-31T04:43:42;100324.27;;;9.72;100.00
52511;BME280;63918;51.700;17.998;2022-10-31T04:46:08;100323.18;;;9.70;100.00
52511;BME280;63918;51.700;17.998;2022-10-31T04:48:35;100320.30;;;9.59;100.00
52511;BME280;63918;51.700;17.998;2022-10-31T04:51:02;100321.32;;;9.52;100.00
52511;BME280;63918;51.700;17.998;2022-10-31T04:53:29;100319.16;;;9.64;100.00
52511;BME280;63918;51.700;17.998;2022-10-31T04:55:57;100320.14;;;9.65;100.00
52511;BME280;63918;51.700;17.998;2022-10-31T04:58:24;100317.98;;;9.66;100.00
52511;BME280;63918;51.700;17.998;2022-10-31T05:00:52;100327.32;;;9.89;100.00
52511;BME280;63918;51.700;17.998;2022-10-31T05:03:19;100328.83;;;9.99;100.00
52511;BME280;63918;51.700;17.998;2022-10-31T05:05:46;100330.18;;;10.08;100.00
52511;BME280;63918;51.700;17.998;2022-10-31T05:08:13;100329.27;;;10.05;100.00
52511;BME280;63918;51.700;17.998;2022-10-31T05:10:40;100324.76;;;9.95;100.00
52511;BME280;63918;51.700;17.998;2022-10-31T05:13:08;100328.39;;;9.99;100.00
52511;BME280;63918;51.700;17.998;2022-10-31T05:15:35;100320.73;;;9.87;100.00
52511;BME280;63918;51.700;17.998;2022-10-31T05:18:01;100327.42;;;9.88;100.00
52511;BME280;63918;51.700;17.998;2022-10-31T05:20:29;100326.27;;;9.84;100.00
52511;BME280;63918;51.700;17.998;2022-10-31T05:22:56;100329.80;;;9.76;100.00
52511;BME280;63918;51.700;17.998;2022-10-31T05:25:26;100332.35;;;9.97;100.00
52511;BME280;63918;51.700;17.998;2022-10-31T05:27:55;100335.30;;;10.02;100.00
52511;BME280;63918;51.700;17.998;2022-10-31T05:30:28;100335.89;;;9.98;100.00
52511;BME280;63918;51.700;17.998;2022-10-31T05:32:55;100335.45;;;10.09;100.00
52511;BME280;63918;51.700;17.998;2022-10-31T05:35:31;100340.17;;;10.06;100.00
52511;BME280;63918;51.700;17.998;2022-10-31T05:37:59;100342.98;;;9.86;100.00
52511;BME280;63918;51.700;17.998;2022-10-31T05:40:26;100343.35;;;9.62;100.00
52511;BME280;63918;51.700;17.998;2022-10-31T05:42:54;100348.02;;;9.63;100.00
52511;BME280;63918;51.700;17.998;2022-10-31T05:45:22;100357.77;;;9.50;100.00
52511;BME280;63918;51.700;17.998;2022-10-31T05:47:55;100364.15;;;9.45;100.00
52511;BME280;63918;51.700;17.998;2022-10-31T05:50:23;100368.30;;;9.35;100.00
52511;BME280;63918;51.700;17.998;2022-10-31T05:52:55;100369.92;;;9.33;100.00
52511;BME280;63918;51.700;17.998;2022-10-31T05:55:22;100369.31;;;9.28;100.00
52511;BME280;63918;51.700;17.998;2022-10-31T05:57:49;100362.56;;;9.22;100.00
52511;BME280;63918;51.700;17.998;2022-10-31T06:00:15;100361.15;;;9.19;100.00
52511;BME280;63918;51.700;17.998;2022-10-31T06:02:42;100363.58;;;9.16;100.00
52511;BME280;63918;51.700;17.998;2022-10-31T06:05:08;100369.02;;;9.21;100.00
52511;BME280;63918;51.700;17.998;2022-10-31T06:07:35;100367.19;;;9.27;100.00
52511;BME280;63918;51.700;17.998;2022-10-31T06:10:04;100367.44;;;9.39;100.00
52511;BME280;63918;51.700;17.998;2022-10-31T06:12:31;100374.47;;;9.52;100.00
52511;BME280;63918;51.700;17.998;2022-10-31T06:15:05;100373.69;;;9.70;100.00
52511;BME280;63918;51.700;17.998;2022-10-31T06:17:33;100382.47;;;10.17;100.00
52511;BME280;63918;51.700;17.998;2022-10-31T06:20:00;100387.91;;;10.66;100.00
52511;BME280;63918;51.700;17.998;2022-10-31T06:22:30;100391.41;;;11.09;100.00
52511;BME280;63918;51.700;17.998;2022-10-31T06:24:56;100389.98;;;10.98;100.00
52511;BME280;63918;51.700;17.998;2022-10-31T06:27:23;100387.88;;;10.77;100.00
52511;BME280;63918;51.700;17.998;2022-10-31T06:29:50;100391.87;;;10.62;100.00
52511;BME280;63918;51.700;17.998;2022-10-31T06:32:17;100394.35;;;11.08;100.00
52511;BME280;63918;51.700;17.998;2022-10-31T06:34:44;100397.30;;;11.41;100.00
52511;BME280;63918;51.700;17.998;2022-10-31T06:37:11;100398.73;;;11.90;100.00
52511;BME280;63918;51.700;17.998;2022-10-31T06:39:38;100403.38;;;12.58;100.00
52511;BME280;63918;51.700;17.998;2022-10-31T06:42:04;100406.72;;;12.79;100.00
52511;BME280;63918;51.700;17.998;2022-10-31T06:44:31;100408.04;;;12.77;100.00
52511;BME280;63918;51.700;17.998;2022-10-31T06:46:58;100403.56;;;12.38;100.00
52511;BME280;63918;51.700;17.998;2022-10-31T06:49:24;100401.69;;;12.10;100.00
52511;BME280;63918;51.700;17.998;2022-10-31T06:51:51;100404.75;;;11.93;100.00
52511;BME280;63918;51.700;17.998;2022-10-31T06:54:17;100410.17;;;11.80;100.00
52511;BME280;63918;51.700;17.998;2022-10-31T06:56:47;100412.30;;;11.89;100.00
52511;BME280;63918;51.700;17.998;2022-10-31T06:59:15;100412.76;;;12.01;100.00
52511;BME280;63918;51.700;17.998;2022-10-31T07:01:41;100414.18;;;12.33;100.00
52511;BME280;63918;51.700;17.998;2022-10-31T07:04:09;100417.52;;;12.67;100.00
52511;BME280;63918;51.700;17.998;2022-10-31T07:06:36;100421.18;;;12.94;100.00
52511;BME280;63918;51.700;17.998;2022-10-31T07:09:04;100419.02;;;12.73;100.00
52511;BME280;63918;51.700;17.998;2022-10-31T07:11:30;100422.59;;;12.93;100.00
52511;BME280;63918;51.700;17.998;2022-10-31T07:13:57;100423.58;;;13.64;100.00
52511;BME280;63918;51.700;17.998;2022-10-31T07:16:24;100426.58;;;13.88;100.00
52511;BME280;63918;51.700;17.998;2022-10-31T07:18:50;100429.39;;;13.52;100.00
52511;BME280;63918;51.700;17.998;2022-10-31T07:21:17;100425.16;;;14.21;100.00
52511;BME280;63918;51.700;17.998;2022-10-31T07:23:43;100428.54;;;14.49;100.00
52511;BME280;63918;51.700;17.998;2022-10-31T07:26:10;100432.73;;;14.78;100.00
52511;BME280;63918;51.700;17.998;2022-10-31T07:28:36;100434.67;;;14.55;100.00
52511;BME280;63918;51.700;17.998;2022-10-31T07:31:03;100439.09;;;14.71;100.00
52511;BME280;63918;51.700;17.998;2022-10-31T07:33:29;100439.25;;;14.95;100.00
52511;BME280;63918;51.700;17.998;2022-10-31T07:35:56;100441.27;;;15.29;100.00
52511;BME280;63918;51.700;17.998;2022-10-31T07:38:22;100439.13;;;15.61;100.00
52511;BME280;63918;51.700;17.998;2022-10-31T07:40:50;100442.63;;;15.32;100.00
52511;BME280;63918;51.700;17.998;2022-10-31T07:43:19;100443.84;;;15.29;100.00
52511;BME280;63918;51.700;17.998;2022-10-31T07:45:50;100432.31;;;15.50;100.00
52511;BME280;63918;51.700;17.998;2022-10-31T07:48:17;100444.33;;;15.48;100.00
52511;BME280;63918;51.700;17.998;2022-10-31T07:50:44;100443.36;;;15.81;100.00
52511;BME280;63918;51.700;17.998;2022-10-31T07:53:12;100451.52;;;16.12;100.00
52511;BME280;63918;51.700;17.998;2022-10-31T07:55:39;100449.71;;;16.07;100.00
52511;BME280;63918;51.700;17.998;2022-10-31T07:58:08;100449.05;;;16.27;99.84
52511;BME280;63918;51.700;17.998;2022-10-31T08:00:36;100457.21;;;16.67;100.00
52511;BME280;63918;51.700;17.998;2022-10-31T08:03:15;100455.98;;;17.01;99.86
52511;BME280;63918;51.700;17.998;2022-10-31T08:05:42;100455.34;;;16.47;99.52
52511;BME280;63918;51.700;17.998;2022-10-31T08:08:12;100451.41;;;16.81;99.26
52511;BME280;63918;51.700;17.998;2022-10-31T08:10:40;100449.90;;;16.87;98.34
52511;BME280;63918;51.700;17.998;2022-10-31T08:13:09;100451.77;;;17.01;98.88
52511;BME280;63918;51.700;17.998;2022-10-31T08:15:36;100450.80;;;17.22;99.32
52511;BME280;63918;51.700;17.998;2022-10-31T08:18:06;100457.36;;;17.69;96.25
52511;BME280;63918;51.700;17.998;2022-10-31T08:20:36;100458.37;;;17.99;97.65
52511;BME280;63918;51.700;17.998;2022-10-31T08:23:04;100456.08;;;17.68;92.70
52511;BME280;63918;51.700;17.998;2022-10-31T08:25:34;100451.64;;;17.15;93.07
52511;BME280;63918;51.700;17.998;2022-10-31T08:28:04;100453.59;;;17.16;95.98
52511;BME280;63918;51.700;17.998;2022-10-31T08:30:33;100454.73;;;17.28;94.37
52511;BME280;63918;51.700;17.998;2022-10-31T08:33:10;100453.93;;;17.45;94.04
52511;BME280;63918;51.700;17.998;2022-10-31T08:35:37;100450.52;;;17.04;92.97
52511;BME280;63918;51.700;17.998;2022-10-31T08:38:04;100455.48;;;17.19;93.20
52511;BME280;63918;51.700;17.998;2022-10-31T08:40:32;100456.84;;;16.98;91.60
52511;BME280;63918;51.700;17.998;2022-10-31T08:43:04;100452.73;;;17.16;89.77
52511;BME280;63918;51.700;17.998;2022-10-31T08:45:32;100454.02;;;17.39;91.13
52511;BME280;63918;51.700;17.998;2022-10-31T08:48:02;100449.40;;;17.17;89.10
52511;BME280;63918;51.700;17.998;2022-10-31T08:50:30;100450.46;;;16.96;87.05
52511;BME280;63918;51.700;17.998;2022-10-31T08:53:20;100447.78;;;17.18;86.18
52511;BME280;63918;51.700;17.998;2022-10-31T08:55:47;100447.59;;;17.60;85.91
52511;BME280;63918;51.700;17.998;2022-10-31T08:58:17;100450.20;;;17.81;82.47
52511;BME280;63918;51.700;17.998;2022-10-31T09:00:45;100448.98;;;17.90;82.77
52511;BME280;63918;51.700;17.998;2022-10-31T09:03:14;100451.39;;;18.03;81.59
52511;BME280;63918;51.700;17.998;2022-10-31T09:05:41;100450.25;;;17.95;80.05
52511;BME280;63918;51.700;17.998;2022-10-31T09:08:09;100447.27;;;18.23;80.82
52511;BME280;63918;51.700;17.998;2022-10-31T09:10:36;100451.50;;;18.04;79.05
52511;BME280;63918;51.700;17.998;2022-10-31T09:13:06;100447.34;;;18.10;79.86
52511;BME280;63918;51.700;17.998;2022-10-31T09:15:34;100447.45;;;19.19;75.47
52511;BME280;63918;51.700;17.998;2022-10-31T09:18:02;100442.98;;;19.01;74.08
52511;BME280;63918;51.700;17.998;2022-10-31T09:20:29;100446.18;;;18.70;75.22
52511;BME280;63918;51.700;17.998;2022-10-31T09:22:57;100445.26;;;19.17;73.13
52511;BME280;63918;51.700;17.998;2022-10-31T09:25:25;100450.02;;;19.24;72.59
52511;BME280;63918;51.700;17.998;2022-10-31T09:27:56;100452.09;;;19.54;71.07
52511;BME280;63918;51.700;17.998;2022-10-31T09:30:24;100450.42;;;19.86;70.11
52511;BME280;63918;51.700;17.998;2022-10-31T09:32:58;100447.95;;;19.46;72.06
52511;BME280;63918;51.700;17.998;2022-10-31T09:35:26;100446.41;;;20.25;69.50
52511;BME280;63918;51.700;17.998;2022-10-31T09:38:01;100448.15;;;20.63;68.75
52511;BME280;63918;51.700;17.998;2022-10-31T09:43:23;100448.51;;;20.01;69.52
52511;BME280;63918;51.700;17.998;2022-10-31T09:48:43;100448.04;;;20.26;68.25
52511;BME280;63918;51.700;17.998;2022-10-31T09:51:29;100449.41;;;20.16;68.71
52511;BME280;63918;51.700;17.998;2022-10-31T09:54:12;100446.45;;;20.03;68.52
52511;BME280;63918;51.700;17.998;2022-10-31T09:56:40;100447.45;;;20.06;68.50
52511;BME280;63918;51.700;17.998;2022-10-31T09:59:24;100449.56;;;20.34;67.98
52511;BME280;63918;51.700;17.998;2022-10-31T10:01:59;100452.52;;;20.65;67.73
52511;BME280;63918;51.700;17.998;2022-10-31T10:04:32;100451.96;;;20.85;65.65
52511;BME280;63918;51.700;17.998;2022-10-31T10:07:08;100450.90;;;20.49;67.20
52511;BME280;63918;51.700;17.998;2022-10-31T10:09:37;100449.58;;;20.24;69.12
52511;BME280;63918;51.700;17.998;2022-10-31T10:12:09;100453.35;;;20.39;68.61
52511;BME280;63918;51.700;17.998;2022-10-31T10:14:45;100450.97;;;20.43;68.09
52511;BME280;63918;51.700;17.998;2022-10-31T10:17:24;100454.05;;;20.47;67.23
52511;BME280;63918;51.700;17.998;2022-10-31T10:22:43;100453.55;;;20.67;67.29
52511;BME280;63918;51.700;17.998;2022-10-31T10:25:15;100453.89;;;20.73;67.10
52511;BME280;63918;51.700;17.998;2022-10-31T10:30:46;100455.20;;;20.66;68.16
52511;BME280;63918;51.700;17.998;2022-10-31T10:33:19;100456.06;;;21.35;66.43
52511;BME280;63918;51.700;17.998;2022-10-31T10:35:56;100456.34;;;21.13;66.29
52511;BME280;63918;51.700;17.998;2022-10-31T10:38:48;100454.85;;;21.32;66.00
52511;BME280;63918;51.700;17.998;2022-10-31T10:41:21;100449.57;;;20.69;66.85
52511;BME280;63918;51.700;17.998;2022-10-31T10:43:49;100454.21;;;21.36;64.24
52511;BME280;63918;51.700;17.998;2022-10-31T10:46:28;100448.91;;;21.19;65.36
52511;BME280;63918;51.700;17.998;2022-10-31T10:49:48;100446.13;;;20.66;66.88
52511;BME280;63918;51.700;17.998;2022-10-31T10:55:36;100447.25;;;21.06;66.41
52511;BME280;63918;51.700;17.998;2022-10-31T10:58:08;100445.08;;;20.78;66.81
52511;BME280;63918;51.700;17.998;2022-10-31T11:00:46;100443.68;;;21.08;65.79
52511;BME280;63918;51.700;17.998;2022-10-31T11:03:14;100441.74;;;21.39;64.78
52511;BME280;63918;51.700;17.998;2022-10-31T11:08:35;100443.17;;;21.44;64.19
52511;BME280;63918;51.700;17.998;2022-10-31T11:13:41;100443.11;;;21.66;63.05
52511;BME280;63918;51.700;17.998;2022-10-31T11:18:53;100449.54;;;21.85;63.04
52511;BME280;63918;51.700;17.998;2022-10-31T11:21:30;100452.02;;;21.73;62.89
52511;BME280;63918;51.700;17.998;2022-10-31T11:24:12;100447.06;;;22.03;62.61
52511;BME280;63918;51.700;17.998;2022-10-31T11:26:42;100448.75;;;21.79;63.86
52511;BME280;63918;51.700;17.998;2022-10-31T11:29:24;100443.11;;;21.81;63.48
52511;BME280;63918;51.700;17.998;2022-10-31T11:31:53;100445.34;;;21.74;64.20
52511;BME280;63918;51.700;17.998;2022-10-31T11:34:35;100438.06;;;21.52;63.43
52511;BME280;63918;51.700;17.998;2022-10-31T11:37:15;100436.67;;;22.41;61.14
52511;BME280;63918;51.700;17.998;2022-10-31T11:39:45;100435.38;;;22.55;61.54
52511;BME280;63918;51.700;17.998;2022-10-31T11:42:22;100437.41;;;22.60;60.41
52511;BME280;63918;51.700;17.998;2022-10-31T11:44:50;100439.17;;;22.58;60.90
52511;BME280;63918;51.700;17.998;2022-10-31T11:47:27;100441.36;;;22.54;60.50
52511;BME280;63918;51.700;17.998;2022-10-31T11:49:55;100439.08;;;22.52;60.57
52511;BME280;63918;51.700;17.998;2022-10-31T11:52:28;100441.91;;;22.65;61.66
52511;BME280;63918;51.700;17.998;2022-10-31T11:55:03;100438.63;;;22.78;60.73
52511;BME280;63918;51.700;17.998;2022-10-31T11:57:51;100433.66;;;22.58;60.02
52511;BME280;63918;51.700;17.998;2022-10-31T12:00:33;100439.95;;;22.30;61.39
52511;BME280;63918;51.700;17.998;2022-10-31T12:05:57;100439.21;;;22.81;59.44
52511;BME280;63918;51.700;17.998;2022-10-31T12:08:29;100435.97;;;22.88;59.83
52511;BME280;63918;51.700;17.998;2022-10-31T12:13:35;100433.25;;;22.53;59.75
52511;BME280;63918;51.700;17.998;2022-10-31T12:16:15;100433.00;;;22.14;61.56
52511;BME280;63918;51.700;17.998;2022-10-31T12:18:58;100430.50;;;22.13;61.71
52511;BME280;63918;51.700;17.998;2022-10-31T12:21:41;100429.82;;;21.58;61.12
52511;BME280;63918;51.700;17.998;2022-10-31T12:27:31;100421.66;;;21.19;63.58
52511;BME280;63918;51.700;17.998;2022-10-31T12:30:15;100428.22;;;21.58;63.00
52511;BME280;63918;51.700;17.998;2022-10-31T12:36:42;100424.23;;;21.49;63.04
52511;BME280;63918;51.700;17.998;2022-10-31T12:41:46;100423.16;;;21.78;63.52
52511;BME280;63918;51.700;17.998;2022-10-31T12:44:43;100422.05;;;21.97;62.53
52511;BME280;63918;51.700;17.998;2022-10-31T12:50:50;100423.67;;;22.50;60.36
52511;BME280;63918;51.700;17.998;2022-10-31T12:56:27;100420.78;;;22.08;61.42
52511;BME280;63918;51.700;17.998;2022-10-31T12:59:17;100427.16;;;21.77;62.60
52511;BME280;63918;51.700;17.998;2022-10-31T13:02:16;100421.98;;;21.46;63.98
52511;BME280;63918;51.700;17.998;2022-10-31T13:10:36;100420.55;;;22.21;62.03
52511;BME280;63918;51.700;17.998;2022-10-31T13:13:14;100416.10;;;21.99;61.47
52511;BME280;63918;51.700;17.998;2022-10-31T13:15:57;100419.33;;;21.80;62.52
52511;BME280;63918;51.700;17.998;2022-10-31T13:18:42;100419.34;;;21.94;62.61
52511;BME280;63918;51.700;17.998;2022-10-31T13:21:18;100420.59;;;21.84;62.84
52511;BME280;63918;51.700;17.998;2022-10-31T13:23:49;100419.50;;;21.76;63.69
52511;BME280;63918;51.700;17.998;2022-10-31T13:27:10;100414.95;;;21.48;65.06
52511;BME280;63918;51.700;17.998;2022-10-31T13:29:19;100412.08;;;21.54;63.85
52511;BME280;63918;51.700;17.998;2022-10-31T13:31:46;100409.54;;;20.99;66.19
52511;BME280;63918;51.700;17.998;2022-10-31T13:34:25;100409.05;;;20.85;66.75
52511;BME280;63918;51.700;17.998;2022-10-31T13:37:00;100403.69;;;20.97;66.13
52511;BME280;63918;51.700;17.998;2022-10-31T13:45:16;100394.23;;;20.88;67.04
52511;BME280;63918;51.700;17.998;2022-10-31T13:47:55;100397.31;;;20.28;70.53
52511;BME280;63918;51.700;17.998;2022-10-31T13:50:25;100393.89;;;19.88;73.52
52511;BME280;63918;51.700;17.998;2022-10-31T13:56:03;100396.38;;;19.77;74.34
52511;BME280;63918;51.700;17.998;2022-10-31T13:58:36;100398.40;;;19.31;77.35
52511;BME280;63918;51.700;17.998;2022-10-31T14:03:33;100393.83;;;19.59;76.87
52511;BME280;63918;51.700;17.998;2022-10-31T14:06:02;100395.69;;;19.33;77.73
52511;BME280;63918;51.700;17.998;2022-10-31T14:08:33;100391.92;;;19.60;76.13
52511;BME280;63918;51.700;17.998;2022-10-31T14:11:00;100388.95;;;19.65;75.56
52511;BME280;63918;51.700;17.998;2022-10-31T14:13:41;100394.21;;;19.44;75.73
52511;BME280;63918;51.700;17.998;2022-10-31T14:16:25;100392.23;;;19.16;77.69
52511;BME280;63918;51.700;17.998;2022-10-31T14:19:02;100392.13;;;19.19;77.84
52511;BME280;63918;51.700;17.998;2022-10-31T14:21:37;100391.48;;;19.26;77.69
52511;BME280;63918;51.700;17.998;2022-10-31T14:24:32;100387.12;;;19.50;76.65